createdAt,value
2023-05-03T00:00:53.522Z,7.37
2023-05-03T00:03:24.006Z,7.46
2023-05-03T00:05:50.757Z,7.43
2023-05-03T00:08:19.579Z,7.36
2023-05-03T00:10:48.225Z,7.37
2023-05-03T00:13:17.777Z,7.36
2023-05-03T00:15:48.799Z,7.29
2023-05-03T00:18:16.161Z,7.17
2023-05-03T00:20:42.823Z,7.17
2023-05-03T00:23:12.131Z,7.17
2023-05-03T00:25:43.214Z,7.15
2023-05-03T00:28:11.150Z,7.12
2023-05-03T00:30:37.941Z,7.08
2023-05-03T00:33:06.728Z,7.09
2023-05-03T00:35:38.206Z,7.07
2023-05-03T00:38:06.135Z,6.89
2023-05-03T00:40:33.592Z,6.82
2023-05-03T00:43:00.416Z,6.75
2023-05-03T00:48:09.167Z,6.93
2023-05-03T00:50:37.372Z,6.85
2023-05-03T00:53:05.334Z,6.84
2023-05-03T00:55:42.403Z,6.76
2023-05-03T00:58:09.299Z,6.65
2023-05-03T01:00:39.197Z,6.68
2023-05-03T01:03:17.169Z,6.51
2023-05-03T01:06:02.676Z,6.69
2023-05-03T01:08:42.281Z,6.59
2023-05-03T01:11:19.932Z,6.61
2023-05-03T01:14:09.184Z,6.55
2023-05-03T01:16:54.768Z,6.38
2023-05-03T01:22:47.903Z,6.51
2023-05-03T01:25:17.467Z,6.40
2023-05-03T01:27:45.607Z,6.46
2023-05-03T01:30:14.495Z,6.45
2023-05-03T01:33:01.754Z,6.30
2023-05-03T01:35:52.645Z,6.39
2023-05-03T01:38:23.376Z,6.38
2023-05-03T01:40:55.958Z,6.27
2023-05-03T01:43:25.239Z,6.30
2023-05-03T01:45:52.821Z,6.24
2023-05-03T01:48:24.353Z,6.22
2023-05-03T01:50:52.243Z,6.18
2023-05-03T01:53:21.100Z,6.29
2023-05-03T01:55:47.763Z,6.25
2023-05-03T01:58:14.308Z,6.26
2023-05-03T02:00:41.546Z,6.20
2023-05-03T02:03:08.611Z,6.12
2023-05-03T02:05:35.376Z,6.09
2023-05-03T02:08:04.729Z,6.02
2023-05-03T02:10:35.354Z,6.04
2023-05-03T02:13:06.390Z,5.90
2023-05-03T02:15:33.398Z,6.02
2023-05-03T02:18:03.320Z,6.01
2023-05-03T02:20:35.743Z,5.94
2023-05-03T02:25:52.600Z,5.90
2023-05-03T02:28:20.895Z,5.84
2023-05-03T02:30:48.070Z,5.63
2023-05-03T02:33:14.799Z,5.63
2023-05-03T02:35:41.485Z,5.77
2023-05-03T02:38:10.316Z,5.50
2023-05-03T02:40:42.564Z,5.54
2023-05-03T02:43:11.091Z,5.51
2023-05-03T02:45:42.572Z,5.32
2023-05-03T02:48:15.660Z,5.58
2023-05-03T02:50:44.156Z,5.66
2023-05-03T02:53:11.962Z,5.54
2023-05-03T02:55:47.279Z,5.36
2023-05-03T02:58:17.193Z,5.48
2023-05-03T03:00:52.797Z,5.53
2023-05-03T03:03:32.608Z,5.56
2023-05-03T03:06:01.507Z,5.48
2023-05-03T03:08:28.114Z,5.54
2023-05-03T03:10:57.730Z,5.50
2023-05-03T03:13:28.509Z,5.50
2023-05-03T03:15:55.189Z,5.57
2023-05-03T03:18:22.455Z,5.50
2023-05-03T03:20:49.107Z,5.48
2023-05-03T03:23:17.650Z,5.42
2023-05-03T03:25:55.760Z,5.44
2023-05-03T03:28:25.222Z,5.47
2023-05-03T03:30:52.106Z,5.49
2023-05-03T03:33:29.483Z,5.48
2023-05-03T03:35:56.021Z,5.48
2023-05-03T03:38:23.375Z,5.53
2023-05-03T03:41:03.447Z,5.54
2023-05-03T03:43:30.842Z,5.47
2023-05-03T03:45:57.693Z,5.45
2023-05-03T03:48:25.292Z,5.28
2023-05-03T03:50:53.471Z,5.40
2023-05-03T03:53:22.814Z,5.40
2023-05-03T03:55:50.774Z,5.39
2023-05-03T03:58:17.614Z,5.45
2023-05-03T04:00:48.302Z,5.44
2023-05-03T04:03:15.989Z,5.42
2023-05-03T04:05:42.865Z,5.43
2023-05-03T04:08:09.898Z,5.41
2023-05-03T04:10:36.507Z,5.32
2023-05-03T04:13:03.455Z,5.40
2023-05-03T04:15:32.720Z,5.38
2023-05-03T04:17:59.455Z,5.37
2023-05-03T04:20:27.248Z,5.25
2023-05-03T04:23:01.327Z,5.25
2023-05-03T04:25:31.381Z,5.38
2023-05-03T04:27:59.445Z,5.39
2023-05-03T04:30:27.208Z,5.41
2023-05-03T04:32:55.654Z,5.37
2023-05-03T04:35:23.351Z,5.35
2023-05-03T04:37:51.515Z,5.45
2023-05-03T04:40:20.099Z,5.45
2023-05-03T04:42:47.950Z,5.47
2023-05-03T04:45:14.862Z,5.45
2023-05-03T04:47:44.813Z,5.53
2023-05-03T04:50:13.415Z,5.54
2023-05-03T04:52:40.674Z,5.54
2023-05-03T04:55:11.065Z,5.55
2023-05-03T04:57:43.012Z,5.66
2023-05-03T05:00:12.097Z,5.58
2023-05-03T05:02:38.786Z,5.71
2023-05-03T05:05:14.779Z,5.63
2023-05-03T05:07:42.285Z,5.79
2023-05-03T05:10:11.712Z,5.78
2023-05-03T05:12:44.927Z,5.72
2023-05-03T05:15:18.060Z,5.92
2023-05-03T05:17:50.746Z,5.94
2023-05-03T05:25:40.298Z,6.21
2023-05-03T05:28:07.703Z,6.30
2023-05-03T05:30:35.615Z,6.44
2023-05-03T05:33:02.588Z,6.40
2023-05-03T05:35:30.126Z,6.55
2023-05-03T05:37:57.432Z,6.63
2023-05-03T05:40:26.457Z,6.57
2023-05-03T05:45:36.345Z,6.66
2023-05-03T05:48:05.929Z,6.68
2023-05-03T05:50:32.661Z,6.74
2023-05-03T05:52:59.387Z,6.90
2023-05-03T05:55:25.986Z,6.85
2023-05-03T06:04:26.913Z,6.99
2023-05-03T06:06:57.450Z,7.18
2023-05-03T06:09:25.241Z,7.35
2023-05-03T06:11:52.811Z,7.51
2023-05-03T06:14:21.059Z,7.69
2023-05-03T06:16:57.868Z,7.96
2023-05-03T06:19:26.861Z,8.09
2023-05-03T06:21:58.547Z,8.16
2023-05-03T06:24:31.935Z,8.60
2023-05-03T06:27:00.452Z,8.95
2023-05-03T06:29:29.538Z,9.15
2023-05-03T06:32:00.180Z,9.43
2023-05-03T06:34:29.424Z,9.75
2023-05-03T06:37:14.068Z,10.03
2023-05-03T06:39:47.212Z,10.38
2023-05-03T06:42:16.942Z,10.59
2023-05-03T06:44:50.900Z,10.79
2023-05-03T06:47:25.866Z,11.19
2023-05-03T06:49:54.948Z,11.23
2023-05-03T06:52:22.860Z,11.31
2023-05-03T06:54:51.096Z,11.53
2023-05-03T06:57:28.666Z,11.66
2023-05-03T07:00:05.173Z,12.03
2023-05-03T07:02:35.585Z,12.32
2023-05-03T07:05:10.798Z,12.27
2023-05-03T07:07:47.300Z,12.04
2023-05-03T07:10:15.513Z,12.39
2023-05-03T07:12:42.872Z,12.19
2023-05-03T07:15:20.157Z,12.66
2023-05-03T07:21:21.968Z,12.76
2023-05-03T07:24:04.839Z,13.17
2023-05-03T07:29:15.600Z,12.68
2023-05-03T07:31:48.340Z,12.52
2023-05-03T07:40:38.655Z,12.63
2023-05-03T07:43:08.392Z,12.81
2023-05-03T07:45:39.461Z,13.02
2023-05-03T07:48:17.200Z,13.10
2023-05-03T07:50:53.833Z,13.30
2023-05-03T07:56:04.888Z,14.00
2023-05-03T07:58:43.670Z,13.91
2023-05-03T08:01:13.715Z,14.19
2023-05-03T08:03:49.019Z,14.50
2023-05-03T08:06:19.827Z,14.54
2023-05-03T08:08:56.076Z,14.89
2023-05-03T08:14:23.371Z,15.25
2023-05-03T08:16:59.945Z,14.84
2023-05-03T08:19:39.385Z,14.95
2023-05-03T08:22:14.779Z,14.28
2023-05-03T08:24:50.069Z,14.05
2023-05-03T08:27:20.449Z,13.90
2023-05-03T08:29:51.630Z,14.00
2023-05-03T08:32:24.368Z,14.06
2023-05-03T08:37:45.880Z,13.93
2023-05-03T08:40:17.721Z,13.74
2023-05-03T08:45:29.550Z,14.02
2023-05-03T08:48:05.116Z,14.35
2023-05-03T08:50:35.051Z,14.84
2023-05-03T08:53:06.244Z,15.33
2023-05-03T08:55:49.075Z,15.79
2023-05-03T08:58:18.292Z,16.03
2023-05-03T09:00:47.861Z,15.83
2023-05-03T09:03:15.463Z,16.00
2023-05-03T09:05:52.550Z,15.86
2023-05-03T09:08:32.282Z,16.04
2023-05-03T09:11:16.646Z,15.96
2023-05-03T09:13:47.533Z,15.73
2023-05-03T09:16:26.615Z,14.95
2023-05-03T09:19:02.566Z,14.24
2023-05-03T09:21:31.718Z,14.24
2023-05-03T09:29:43.751Z,13.58
2023-05-03T09:32:17.821Z,13.66
2023-05-03T09:40:32.144Z,13.78
2023-05-03T09:45:52.231Z,13.82
2023-05-03T09:48:24.251Z,13.91
2023-05-03T09:50:51.725Z,13.82
2023-05-03T09:53:22.089Z,13.73
2023-05-03T09:55:56.552Z,13.70
2023-05-03T09:58:35.035Z,13.84
2023-05-03T10:01:05.026Z,13.98
2023-05-03T10:03:52.726Z,13.84
2023-05-03T10:06:35.145Z,14.08
2023-05-03T10:09:46.345Z,14.48
2023-05-03T10:12:20.227Z,14.74
2023-05-03T10:14:56.770Z,14.87
2023-05-03T10:20:46.479Z,14.90
2023-05-03T10:23:26.570Z,14.88
2023-05-03T10:26:13.790Z,14.82
2023-05-03T10:28:41.281Z,14.78
2023-05-03T10:34:33.484Z,14.94
2023-05-03T10:37:13.728Z,15.24
2023-05-03T10:39:45.816Z,15.38
2023-05-03T10:42:16.298Z,15.45
2023-05-03T10:44:50.535Z,15.40
2023-05-03T10:47:19.551Z,15.62
2023-05-03T10:49:55.200Z,15.56
2023-05-03T10:52:59.656Z,15.37
2023-05-03T10:55:27.003Z,15.27
2023-05-03T11:00:46.885Z,15.57
2023-05-03T11:04:04.865Z,15.66
2023-05-03T11:06:41.557Z,15.74
2023-05-03T11:09:19.969Z,16.04
2023-05-03T11:11:48.479Z,16.16
2023-05-03T11:14:18.011Z,16.04
2023-05-03T11:16:50.749Z,16.06
2023-05-03T11:19:17.656Z,16.03
2023-05-03T11:21:48.472Z,16.01
2023-05-03T11:24:19.115Z,15.95
2023-05-03T11:27:09.716Z,15.95
2023-05-03T11:29:59.716Z,16.01
2023-05-03T11:32:27.799Z,16.15
2023-05-03T11:34:54.733Z,16.35
2023-05-03T11:40:34.980Z,16.26
2023-05-03T11:43:02.371Z,16.49
2023-05-03T11:45:35.989Z,16.74
2023-05-03T11:48:03.488Z,16.75
2023-05-03T11:50:59.858Z,16.78
2023-05-03T11:53:28.751Z,16.70
2023-05-03T11:55:58.341Z,16.64
2023-05-03T11:58:29.546Z,16.66
2023-05-03T12:01:05.582Z,16.51
2023-05-03T12:03:51.141Z,16.42
2023-05-03T12:06:21.710Z,16.37
2023-05-03T12:11:44.806Z,16.54
2023-05-03T12:16:56.964Z,16.46
2023-05-03T12:19:31.112Z,16.53
2023-05-03T12:24:40.549Z,16.99
2023-05-03T12:27:08.447Z,17.10
2023-05-03T12:29:40.880Z,17.15
2023-05-03T12:32:11.686Z,17.11
2023-05-03T12:34:41.452Z,17.26
2023-05-03T12:37:11.675Z,17.34
2023-05-03T12:40:16.313Z,17.28
2023-05-03T12:42:53.819Z,17.22
2023-05-03T12:45:21.587Z,17.15
2023-05-03T12:50:38.783Z,17.46
2023-05-03T12:53:11.037Z,17.59
2023-05-03T12:55:52.491Z,17.80
2023-05-03T13:06:31.475Z,18.31
2023-05-03T13:09:21.327Z,18.35
2023-05-03T13:11:52.803Z,18.47
2023-05-03T13:20:07.798Z,18.34
2023-05-03T13:22:42.313Z,18.36
2023-05-03T13:30:47.625Z,18.23
2023-05-03T13:36:01.873Z,18.27
2023-05-03T13:38:33.210Z,18.33
2023-05-03T13:41:35.605Z,18.50
2023-05-03T13:46:56.154Z,18.91
2023-05-03T13:49:26.638Z,18.84
2023-05-03T13:51:53.427Z,18.82
2023-05-03T13:54:20.281Z,18.69
2023-05-03T14:03:01.100Z,18.78
2023-05-03T14:08:34.839Z,18.60
2023-05-03T14:16:55.097Z,18.92
2023-05-03T14:27:39.324Z,19.06
2023-05-03T14:30:11.021Z,18.97
2023-05-03T14:32:39.210Z,19.02
2023-05-03T14:35:15.345Z,18.78
2023-05-03T14:37:45.406Z,18.82
2023-05-03T14:40:32.641Z,18.96
2023-05-03T14:43:04.991Z,19.05
2023-05-03T14:48:24.359Z,18.89
2023-05-03T14:50:57.683Z,18.85
2023-05-03T14:53:32.517Z,18.82
2023-05-03T14:58:53.431Z,19.08
2023-05-03T15:01:22.487Z,19.08
2023-05-03T15:03:57.236Z,19.25
2023-05-03T15:09:38.076Z,19.20
2023-05-03T15:12:23.728Z,19.33
2023-05-03T15:14:52.533Z,19.40
2023-05-03T15:17:45.742Z,19.31
2023-05-03T15:20:18.929Z,19.19
2023-05-03T15:23:05.308Z,18.98
2023-05-03T15:25:35.013Z,18.90
2023-05-03T15:28:11.416Z,18.89
2023-05-03T15:31:04.288Z,18.89
2023-05-03T15:33:43.571Z,18.97
2023-05-03T15:36:15.992Z,18.82
2023-05-03T15:44:41.704Z,18.71
2023-05-03T15:49:59.922Z,18.57
2023-05-03T15:52:29.455Z,18.64
2023-05-03T15:55:02.166Z,18.63
2023-05-03T15:57:51.346Z,18.41
2023-05-03T16:00:22.202Z,18.42
2023-05-03T16:02:50.945Z,18.70
2023-05-03T16:05:20.727Z,18.70
2023-05-03T16:10:37.501Z,18.78
2023-05-03T16:13:12.823Z,18.60
2023-05-03T16:18:33.057Z,18.57
2023-05-03T16:21:06.952Z,18.90
2023-05-03T16:23:42.572Z,18.96
2023-05-03T16:26:16.893Z,18.96
2023-05-03T16:28:53.353Z,18.95
2023-05-03T16:31:24.352Z,18.86
2023-05-03T16:33:54.018Z,18.84
2023-05-03T16:39:04.191Z,18.85
2023-05-03T16:41:31.444Z,19.16
2023-05-03T16:43:58.525Z,19.18
2023-05-03T16:46:25.490Z,19.07
2023-05-03T16:48:54.231Z,18.96
2023-05-03T16:54:09.041Z,18.72
2023-05-03T16:56:43.023Z,18.54
2023-05-03T16:59:38.007Z,18.77
2023-05-03T17:02:08.930Z,18.58
2023-05-03T17:13:05.733Z,18.50
2023-05-03T17:18:45.190Z,18.25
2023-05-03T17:21:32.885Z,18.36
2023-05-03T17:24:06.132Z,18.31
2023-05-03T17:32:15.249Z,17.96
2023-05-03T17:40:46.648Z,17.72
2023-05-03T17:46:11.547Z,17.83
2023-05-03T17:49:00.980Z,17.64
2023-05-03T17:51:33.797Z,17.50
2023-05-03T17:54:06.557Z,17.55
2023-05-03T18:02:18.115Z,17.42
2023-05-03T18:07:37.195Z,17.21
2023-05-03T18:10:18.926Z,17.15
2023-05-03T18:13:13.025Z,17.08
2023-05-03T18:16:17.892Z,17.00
2023-05-03T18:18:52.113Z,16.94
2023-05-03T18:21:22.775Z,16.82
2023-05-03T18:29:20.896Z,16.65
2023-05-03T18:34:38.089Z,16.59
2023-05-03T19:00:07.858Z,15.61
2023-05-03T20:31:57.860Z,13.29
2023-05-03T20:40:12.902Z,13.06
2023-05-03T20:42:44.470Z,13.13
2023-05-03T20:45:18.009Z,12.95
2023-05-03T20:50:32.161Z,12.92
2023-05-03T20:58:31.811Z,12.49
2023-05-03T21:01:06.352Z,12.69
2023-05-03T21:17:49.981Z,12.23
2023-05-03T21:20:20.028Z,12.13
2023-05-03T21:22:55.558Z,12.09
2023-05-03T21:25:32.885Z,11.75
2023-05-03T21:28:02.662Z,11.95
2023-05-03T21:30:30.714Z,11.90
2023-05-03T21:32:59.604Z,11.74
2023-05-03T21:35:27.282Z,11.83
2023-05-03T21:38:05.971Z,11.75
2023-05-03T21:40:35.410Z,11.76
2023-05-03T21:43:11.859Z,11.72
2023-05-03T21:45:50.137Z,11.66
2023-05-03T21:48:31.869Z,11.70
2023-05-03T21:51:25.535Z,11.58
2023-05-03T21:53:58.428Z,11.66
2023-05-03T21:56:25.215Z,11.66
2023-05-03T21:58:51.758Z,11.52
2023-05-03T22:01:20.688Z,11.54
2023-05-03T22:03:48.851Z,11.48
2023-05-03T22:08:58.297Z,11.34
2023-05-03T22:11:24.908Z,11.31
2023-05-03T22:14:08.142Z,11.30
2023-05-03T22:16:40.928Z,11.25
2023-05-03T22:19:12.552Z,11.03
2023-05-03T22:21:40.063Z,11.15
2023-05-03T22:24:12.286Z,11.04
2023-05-03T22:26:38.812Z,11.00
2023-05-03T22:29:05.521Z,10.89
2023-05-03T22:31:35.092Z,10.93
2023-05-03T22:34:08.633Z,10.93
2023-05-03T22:36:39.636Z,10.90
2023-05-03T22:41:47.847Z,10.83
2023-05-03T22:44:18.578Z,10.79
2023-05-03T22:46:48.314Z,10.79
2023-05-03T22:49:20.518Z,10.80
2023-05-03T22:51:52.414Z,10.73
2023-05-03T22:54:22.137Z,10.58
2023-05-03T23:02:49.440Z,10.63
2023-05-03T23:05:19.745Z,10.60
2023-05-03T23:07:48.086Z,10.61
2023-05-03T23:10:17.562Z,10.34
2023-05-03T23:12:55.971Z,10.46
2023-05-03T23:15:24.200Z,10.37
2023-05-03T23:17:51.610Z,10.39
2023-05-03T23:20:20.868Z,10.39
2023-05-03T23:22:51.436Z,10.43
2023-05-03T23:25:25.837Z,10.37
2023-05-03T23:27:53.366Z,10.38
2023-05-03T23:33:08.108Z,10.24
2023-05-03T23:35:36.966Z,10.26
2023-05-03T23:38:03.803Z,10.24
2023-05-03T23:40:30.983Z,10.27
2023-05-03T23:42:58.473Z,10.22
2023-05-03T23:45:27.189Z,10.02
2023-05-03T23:47:56.988Z,10.07
2023-05-03T23:50:23.698Z,10.03
2023-05-03T23:52:50.229Z,9.84
2023-05-03T23:55:19.480Z,9.87
2023-05-03T23:57:47.850Z,9.83
